createdAt,value
2022-11-30T00:01:11.468Z,77.01
2022-11-30T00:03:39.159Z,77.33
2022-11-30T00:06:07.221Z,76.57
2022-11-30T00:08:34.583Z,76.81
2022-11-30T00:11:02.104Z,76.68
2022-11-30T00:13:29.561Z,76.70
2022-11-30T00:16:02.444Z,77.00
2022-11-30T00:18:29.926Z,76.42
2022-11-30T00:21:00.582Z,77.00
2022-11-30T00:23:28.199Z,75.90
2022-11-30T00:25:55.675Z,75.86
2022-11-30T00:28:23.144Z,75.94
2022-11-30T00:30:58.563Z,76.26
2022-11-30T00:33:27.544Z,75.57
2022-11-30T00:35:59.293Z,75.53
2022-11-30T00:38:27.334Z,75.99
2022-11-30T00:40:54.675Z,76.04
2022-11-30T00:43:22.133Z,75.43
2022-11-30T00:45:49.663Z,75.92
2022-11-30T00:48:17.161Z,75.56
2022-11-30T00:50:45.959Z,75.26
2022-11-30T00:53:13.436Z,75.72
2022-11-30T00:55:40.963Z,75.65
2022-11-30T00:58:08.839Z,75.79
2022-11-30T01:00:36.665Z,75.29
2022-11-30T01:03:04.738Z,75.23
2022-11-30T01:05:33.539Z,75.31
2022-11-30T01:08:03.073Z,75.07
2022-11-30T01:10:30.587Z,75.75
2022-11-30T01:12:58.292Z,75.48
2022-11-30T01:15:25.778Z,75.64
2022-11-30T01:17:53.276Z,75.42
2022-11-30T01:20:21.081Z,76.13
2022-11-30T01:22:48.667Z,75.39
2022-11-30T01:25:17.580Z,75.72
2022-11-30T01:27:45.095Z,75.18
2022-11-30T01:30:13.227Z,75.67
2022-11-30T01:32:40.703Z,75.22
2022-11-30T01:35:08.947Z,75.11
2022-11-30T01:37:36.451Z,75.44
2022-11-30T01:40:04.466Z,75.50
2022-11-30T01:42:33.399Z,75.81
2022-11-30T01:45:02.287Z,75.66
2022-11-30T01:47:34.092Z,75.74
2022-11-30T01:50:05.648Z,75.77
2022-11-30T01:52:38.258Z,76.33
2022-11-30T01:55:14.711Z,75.98
2022-11-30T01:57:49.158Z,75.85
2022-11-30T02:00:17.772Z,75.84
2022-11-30T02:02:54.090Z,75.85
2022-11-30T02:05:23.979Z,76.00
2022-11-30T02:07:51.637Z,75.72
2022-11-30T02:10:23.584Z,76.00
2022-11-30T02:13:09.608Z,76.16
2022-11-30T02:15:47.463Z,76.11
2022-11-30T02:18:16.148Z,76.42
2022-11-30T02:21:09.555Z,76.29
2022-11-30T02:24:04.371Z,76.64
2022-11-30T02:26:56.742Z,76.98
2022-11-30T02:29:29.591Z,77.47
2022-11-30T02:32:05.745Z,77.40
2022-11-30T02:34:37.069Z,77.76
2022-11-30T02:37:07.602Z,77.13
2022-11-30T02:39:35.296Z,77.34
2022-11-30T02:42:02.856Z,77.71
2022-11-30T02:44:31.705Z,77.55
2022-11-30T02:47:10.770Z,77.44
2022-11-30T02:49:45.423Z,77.28
2022-11-30T02:52:15.515Z,76.98
2022-11-30T02:54:43.191Z,76.97
2022-11-30T02:57:10.695Z,77.09
2022-11-30T02:59:40.405Z,77.22
2022-11-30T03:02:07.953Z,77.46
2022-11-30T03:04:35.466Z,77.39
2022-11-30T03:07:03.025Z,77.30
2022-11-30T03:09:30.502Z,77.43
2022-11-30T03:11:57.995Z,77.21
2022-11-30T03:14:25.444Z,77.84
2022-11-30T03:16:54.307Z,76.99
2022-11-30T03:19:21.819Z,77.27
2022-11-30T03:21:49.298Z,77.89
2022-11-30T03:24:16.863Z,77.91
2022-11-30T03:26:44.358Z,78.41
2022-11-30T03:29:11.837Z,78.17
2022-11-30T03:31:39.390Z,78.82
2022-11-30T03:34:08.226Z,78.73
2022-11-30T03:36:35.741Z,78.26
2022-11-30T03:39:03.734Z,78.57
2022-11-30T03:41:31.225Z,78.99
2022-11-30T03:43:58.715Z,78.88
2022-11-30T03:46:27.392Z,78.87
2022-11-30T03:48:55.384Z,78.66
2022-11-30T03:51:24.163Z,78.90
2022-11-30T03:53:51.661Z,78.99
2022-11-30T03:56:19.192Z,78.57
2022-11-30T03:58:46.732Z,79.16
2022-11-30T04:01:16.063Z,79.74
2022-11-30T04:03:44.174Z,79.76
2022-11-30T04:06:12.943Z,79.55
2022-11-30T04:08:42.446Z,79.48
2022-11-30T04:11:10.459Z,79.75
2022-11-30T04:13:38.639Z,80.04
2022-11-30T04:16:07.244Z,80.02
2022-11-30T04:18:36.401Z,80.36
2022-11-30T04:21:04.626Z,80.17
2022-11-30T04:23:34.077Z,80.16
2022-11-30T04:26:03.446Z,80.35
2022-11-30T04:28:30.931Z,80.31
2022-11-30T04:31:00.321Z,80.48
2022-11-30T04:33:28.531Z,80.70
2022-11-30T04:35:58.546Z,81.02
2022-11-30T04:38:26.479Z,80.56
2022-11-30T04:40:54.391Z,80.89
2022-11-30T04:43:23.843Z,80.85
2022-11-30T04:45:51.410Z,80.82
2022-11-30T04:48:20.055Z,81.15
2022-11-30T04:50:47.551Z,80.87
2022-11-30T04:53:15.027Z,81.10
2022-11-30T04:55:42.479Z,81.17
2022-11-30T04:58:10.087Z,81.66
2022-11-30T05:00:39.036Z,81.43
2022-11-30T05:03:06.517Z,81.35
2022-11-30T05:05:33.982Z,81.25
2022-11-30T05:08:02.299Z,81.51
2022-11-30T05:10:30.294Z,81.20
2022-11-30T05:12:57.990Z,81.66
2022-11-30T05:15:25.821Z,81.27
2022-11-30T05:17:54.619Z,81.48
2022-11-30T05:20:22.094Z,81.17
2022-11-30T05:22:50.050Z,80.74
2022-11-30T05:25:17.628Z,80.28
2022-11-30T05:27:45.231Z,79.55
2022-11-30T05:30:13.704Z,79.72
2022-11-30T05:32:41.170Z,79.34
2022-11-30T05:35:10.769Z,79.99
2022-11-30T05:37:38.331Z,78.69
2022-11-30T05:40:07.341Z,79.55
2022-11-30T05:42:34.836Z,78.80
2022-11-30T05:45:02.316Z,79.03
2022-11-30T05:47:29.803Z,79.09
2022-11-30T05:49:57.292Z,78.75
2022-11-30T05:52:26.108Z,79.04
2022-11-30T05:54:53.583Z,79.38
2022-11-30T05:57:21.060Z,79.29
2022-11-30T05:59:48.543Z,79.63
2022-11-30T06:02:16.174Z,79.72
2022-11-30T06:04:43.719Z,79.65
2022-11-30T06:07:11.891Z,79.19
2022-11-30T06:09:40.887Z,79.40
2022-11-30T06:12:08.975Z,81.08
2022-11-30T06:14:36.326Z,80.28
2022-11-30T06:17:04.043Z,80.53
2022-11-30T06:19:31.662Z,80.76
2022-11-30T06:21:59.144Z,80.56
2022-11-30T06:24:26.629Z,80.63
2022-11-30T06:26:55.490Z,80.26
2022-11-30T06:29:23.020Z,80.41
2022-11-30T06:31:50.604Z,81.24
2022-11-30T06:34:18.104Z,80.33
2022-11-30T06:36:45.632Z,80.13
2022-11-30T06:39:13.525Z,79.96
2022-11-30T06:41:41.092Z,79.57
2022-11-30T06:44:10.755Z,79.91
2022-11-30T06:46:38.532Z,80.11
2022-11-30T06:49:06.206Z,79.96
2022-11-30T06:51:34.311Z,80.15
2022-11-30T06:54:01.670Z,80.41
2022-11-30T06:56:29.168Z,79.73
2022-11-30T06:58:56.640Z,79.71
2022-11-30T07:01:25.562Z,79.38
2022-11-30T07:03:53.304Z,80.25
2022-11-30T07:06:20.988Z,79.96
2022-11-30T07:08:49.799Z,80.49
2022-11-30T07:11:17.371Z,80.41
2022-11-30T07:13:45.680Z,79.82
2022-11-30T07:16:15.608Z,79.70
2022-11-30T07:18:44.438Z,80.48
2022-11-30T07:21:12.075Z,80.20
2022-11-30T07:23:57.396Z,79.94
2022-11-30T07:26:25.841Z,79.85
2022-11-30T07:28:58.030Z,80.52
2022-11-30T07:31:27.715Z,79.75
2022-11-30T07:33:57.354Z,80.11
2022-11-30T07:36:29.612Z,78.94
2022-11-30T07:38:57.169Z,78.67
2022-11-30T07:41:24.748Z,78.67
2022-11-30T07:43:52.240Z,78.63
2022-11-30T07:46:19.920Z,78.43
2022-11-30T07:48:47.491Z,78.50
2022-11-30T07:51:18.043Z,77.77
2022-11-30T07:53:45.845Z,76.98
2022-11-30T07:56:16.436Z,77.28
2022-11-30T07:58:44.719Z,77.04
2022-11-30T08:01:13.874Z,76.39
2022-11-30T08:03:42.015Z,76.44
2022-11-30T08:06:11.800Z,75.99
2022-11-30T08:08:42.393Z,76.31
2022-11-30T08:11:13.339Z,75.94
2022-11-30T08:13:40.828Z,75.54
2022-11-30T08:16:10.196Z,75.68
2022-11-30T08:18:37.803Z,75.82
2022-11-30T08:21:08.497Z,75.98
2022-11-30T08:23:39.062Z,75.56
2022-11-30T08:26:11.088Z,75.44
2022-11-30T08:28:38.659Z,75.46
2022-11-30T08:31:08.060Z,74.89
2022-11-30T08:33:37.135Z,75.42
2022-11-30T08:36:09.058Z,75.07
2022-11-30T08:38:37.367Z,74.65
2022-11-30T08:41:05.111Z,74.59
2022-11-30T08:43:34.499Z,74.73
2022-11-30T08:46:11.412Z,74.98
2022-11-30T08:48:49.231Z,74.74
2022-11-30T08:51:19.043Z,74.36
2022-11-30T08:53:47.075Z,74.50
2022-11-30T08:56:15.261Z,74.48
2022-11-30T08:58:44.150Z,74.13
2022-11-30T09:01:13.920Z,74.15
2022-11-30T09:03:42.523Z,73.72
2022-11-30T09:06:12.803Z,73.95
2022-11-30T09:08:41.448Z,72.95
2022-11-30T09:11:10.735Z,72.67
2022-11-30T09:13:38.295Z,72.79
2022-11-30T09:16:08.233Z,72.56
2022-11-30T09:18:36.129Z,73.01
2022-11-30T09:21:05.458Z,73.06
2022-11-30T09:23:33.093Z,72.29
2022-11-30T09:26:04.448Z,72.46
2022-11-30T09:28:32.166Z,71.73
2022-11-30T09:31:02.848Z,71.31
2022-11-30T09:33:32.102Z,70.49
2022-11-30T09:36:00.815Z,69.82
2022-11-30T09:38:28.710Z,70.19
2022-11-30T09:40:58.746Z,70.38
2022-11-30T09:43:37.506Z,70.64
2022-11-30T09:46:08.657Z,70.82
2022-11-30T09:48:52.333Z,70.23
2022-11-30T09:51:23.518Z,70.25
2022-11-30T09:53:56.323Z,68.96
2022-11-30T09:56:29.461Z,68.60
2022-11-30T09:59:03.132Z,68.24
2022-11-30T10:01:32.990Z,68.69
2022-11-30T10:04:02.523Z,68.45
2022-11-30T10:06:39.833Z,68.29
2022-11-30T10:09:25.579Z,68.09
2022-11-30T10:12:00.242Z,67.64
2022-11-30T10:14:58.635Z,67.20
2022-11-30T10:17:39.065Z,67.41
2022-11-30T10:20:23.781Z,67.62
2022-11-30T10:23:07.999Z,68.76
2022-11-30T10:25:48.193Z,68.71
2022-11-30T10:28:45.565Z,68.52
2022-11-30T10:31:10.984Z,68.81
2022-11-30T10:33:44.182Z,68.96
2022-11-30T10:36:16.348Z,69.02
2022-11-30T10:38:47.701Z,68.39
2022-11-30T10:41:19.343Z,68.09
2022-11-30T10:43:52.918Z,68.15
2022-11-30T10:46:23.505Z,68.42
2022-11-30T10:48:55.653Z,68.00
2022-11-30T10:51:26.024Z,67.99
2022-11-30T10:53:53.633Z,67.59
2022-11-30T10:56:21.123Z,67.12
2022-11-30T10:58:56.251Z,66.59
2022-11-30T11:01:33.824Z,67.07
2022-11-30T11:04:17.215Z,66.65
2022-11-30T11:06:48.647Z,66.65
2022-11-30T11:09:35.138Z,66.74
2022-11-30T11:12:04.431Z,66.84
2022-11-30T11:14:36.459Z,66.52
2022-11-30T11:17:06.773Z,66.54
2022-11-30T11:19:38.178Z,66.61
2022-11-30T11:22:15.808Z,66.13
2022-11-30T11:24:43.750Z,66.28
2022-11-30T11:27:23.887Z,66.51
2022-11-30T11:30:01.924Z,66.73
2022-11-30T11:32:30.996Z,66.98
2022-11-30T11:34:59.344Z,67.33
2022-11-30T11:37:31.002Z,67.89
2022-11-30T11:40:01.669Z,68.09
2022-11-30T11:42:31.803Z,68.09
2022-11-30T11:45:01.632Z,68.43
2022-11-30T11:47:38.672Z,67.39
2022-11-30T11:50:50.300Z,66.48
2022-11-30T11:53:25.865Z,65.89
2022-11-30T11:55:57.415Z,66.27
2022-11-30T11:58:33.888Z,66.28
2022-11-30T12:01:31.518Z,66.88
2022-11-30T12:04:05.894Z,66.91
2022-11-30T12:06:35.198Z,66.98
2022-11-30T12:09:11.627Z,66.99
2022-11-30T12:11:43.474Z,67.21
2022-11-30T12:14:13.665Z,67.88
2022-11-30T12:17:02.159Z,68.01
2022-11-30T12:19:38.392Z,68.04
2022-11-30T12:22:17.299Z,68.06
2022-11-30T12:25:05.493Z,68.55
2022-11-30T12:27:42.455Z,68.39
2022-11-30T12:30:16.721Z,68.82
2022-11-30T12:33:09.430Z,68.32
2022-11-30T12:35:47.759Z,68.52
2022-11-30T12:38:27.025Z,68.73
2022-11-30T12:41:02.856Z,69.17
2022-11-30T12:43:44.000Z,68.80
2022-11-30T12:46:22.384Z,68.87
2022-11-30T12:49:00.992Z,68.82
2022-11-30T12:51:34.299Z,68.16
2022-11-30T12:54:08.775Z,67.59
2022-11-30T12:56:46.162Z,67.23
2022-11-30T12:59:31.611Z,67.17
2022-11-30T13:02:17.848Z,67.06
2022-11-30T13:04:56.359Z,67.28
2022-11-30T13:07:31.133Z,67.80
2022-11-30T13:10:01.547Z,67.81
2022-11-30T13:12:36.708Z,68.12
2022-11-30T13:15:09.823Z,67.99
2022-11-30T13:17:41.797Z,67.74
2022-11-30T13:20:21.239Z,67.76
2022-11-30T13:22:54.689Z,67.84
2022-11-30T13:26:06.147Z,68.70
2022-11-30T13:28:32.402Z,68.40
2022-11-30T13:31:06.833Z,68.33
2022-11-30T13:33:49.149Z,68.12
2022-11-30T13:36:28.070Z,68.28
2022-11-30T13:39:20.734Z,68.31
2022-11-30T13:41:50.379Z,68.16
2022-11-30T13:44:30.299Z,68.58
2022-11-30T13:46:58.287Z,68.47
2022-11-30T13:49:29.130Z,68.50
2022-11-30T13:52:21.384Z,69.12
2022-11-30T13:54:46.479Z,68.61
2022-11-30T13:57:19.932Z,68.91
2022-11-30T13:59:51.588Z,69.03
2022-11-30T14:02:59.185Z,69.21
2022-11-30T14:05:36.150Z,69.11
2022-11-30T14:08:32.323Z,69.67
2022-11-30T14:11:38.376Z,69.69
2022-11-30T14:14:47.387Z,69.83
2022-11-30T14:17:20.206Z,70.12
2022-11-30T14:19:53.040Z,70.15
2022-11-30T14:22:20.743Z,70.20
2022-11-30T14:24:49.940Z,70.30
2022-11-30T14:27:21.064Z,70.69
2022-11-30T14:29:53.281Z,70.55
2022-11-30T14:32:30.129Z,70.32
2022-11-30T14:35:08.040Z,71.29
2022-11-30T14:37:40.872Z,71.65
2022-11-30T14:40:11.941Z,71.90
2022-11-30T14:42:48.292Z,72.05
2022-11-30T14:45:21.160Z,71.09
2022-11-30T14:47:52.539Z,71.19
2022-11-30T14:50:24.245Z,71.71
2022-11-30T14:53:01.663Z,71.84
2022-11-30T14:55:34.367Z,71.99
2022-11-30T14:58:14.264Z,72.43
2022-11-30T15:00:44.712Z,72.32
2022-11-30T15:03:23.901Z,72.06
2022-11-30T15:05:53.044Z,71.50
2022-11-30T15:08:20.935Z,72.30
2022-11-30T15:10:48.874Z,71.16
2022-11-30T15:13:19.609Z,71.16
2022-11-30T15:15:52.421Z,70.99
2022-11-30T15:18:23.015Z,70.59
2022-11-30T15:20:55.364Z,70.74
2022-11-30T15:23:23.439Z,71.65
2022-11-30T15:25:53.433Z,71.21
2022-11-30T15:28:24.044Z,72.25
2022-11-30T15:30:55.723Z,72.42
2022-11-30T15:33:29.955Z,72.70
2022-11-30T15:36:18.820Z,73.56
2022-11-30T15:38:51.004Z,73.90
2022-11-30T15:41:21.287Z,73.19
2022-11-30T15:43:51.444Z,72.83
2022-11-30T15:46:30.550Z,73.10
2022-11-30T15:49:18.847Z,72.44
2022-11-30T15:51:53.194Z,72.38
2022-11-30T15:54:44.939Z,72.87
2022-11-30T15:57:12.796Z,72.53
2022-11-30T15:59:41.343Z,72.81
2022-11-30T16:02:26.159Z,73.16
2022-11-30T16:05:23.940Z,73.91
2022-11-30T16:07:53.030Z,73.61
2022-11-30T16:10:23.375Z,73.21
2022-11-30T16:12:53.526Z,72.72
2022-11-30T16:15:23.337Z,72.65
2022-11-30T16:17:52.076Z,72.81
2022-11-30T16:20:21.620Z,73.05
2022-11-30T16:22:50.125Z,73.23
2022-11-30T16:25:19.278Z,73.65
2022-11-30T16:27:47.603Z,74.35
2022-11-30T16:30:17.389Z,74.34
2022-11-30T16:32:45.336Z,73.21
2022-11-30T16:35:21.623Z,73.39
2022-11-30T16:37:50.915Z,72.85
2022-11-30T16:40:19.828Z,72.43
2022-11-30T16:42:49.703Z,73.04
2022-11-30T16:45:20.619Z,73.01
2022-11-30T16:47:48.130Z,72.66
2022-11-30T16:50:16.136Z,73.61
2022-11-30T16:52:43.709Z,73.91
2022-11-30T16:55:15.297Z,73.23
2022-11-30T16:57:43.239Z,73.63
2022-11-30T17:00:13.155Z,74.31
2022-11-30T17:02:45.849Z,73.88
2022-11-30T17:05:16.071Z,72.84
2022-11-30T17:07:43.941Z,71.92
2022-11-30T17:10:12.805Z,70.82
2022-11-30T17:12:42.796Z,70.63
2022-11-30T17:15:15.349Z,70.12
2022-11-30T17:17:42.825Z,70.29
2022-11-30T17:20:11.096Z,70.26
2022-11-30T17:22:39.725Z,69.29
2022-11-30T17:25:12.353Z,68.78
2022-11-30T17:27:41.181Z,68.26
2022-11-30T17:30:09.897Z,68.06
2022-11-30T17:32:37.441Z,68.66
2022-11-30T17:35:05.260Z,69.25
2022-11-30T17:37:32.766Z,69.25
2022-11-30T17:40:00.508Z,69.01
2022-11-30T17:42:29.914Z,69.27
2022-11-30T17:44:58.735Z,68.72
2022-11-30T17:47:26.383Z,69.37
2022-11-30T17:49:53.875Z,69.66
2022-11-30T17:52:21.352Z,69.92
2022-11-30T17:54:49.101Z,69.55
2022-11-30T17:57:16.727Z,69.47
2022-11-30T17:59:44.284Z,70.41
2022-11-30T18:02:13.468Z,71.67
2022-11-30T18:04:40.985Z,72.75
2022-11-30T18:07:08.648Z,73.02
2022-11-30T18:09:40.964Z,73.96
2022-11-30T18:12:10.587Z,73.88
2022-11-30T18:14:38.170Z,75.27
2022-11-30T18:17:05.825Z,75.37
2022-11-30T18:19:34.788Z,75.94
2022-11-30T18:22:02.311Z,76.22
2022-11-30T18:24:29.885Z,77.06
2022-11-30T18:26:57.365Z,77.39
2022-11-30T18:29:25.613Z,77.09
2022-11-30T18:31:53.271Z,77.72
2022-11-30T18:34:20.915Z,77.29
2022-11-30T18:36:49.815Z,77.23
2022-11-30T18:39:17.279Z,76.74
2022-11-30T18:41:44.933Z,76.21
2022-11-30T18:44:12.613Z,76.32
2022-11-30T18:46:40.146Z,77.36
2022-11-30T18:49:07.796Z,77.13
2022-11-30T18:51:35.596Z,77.40
2022-11-30T18:54:06.679Z,77.84
2022-11-30T18:56:37.394Z,78.13
2022-11-30T18:59:06.886Z,78.57
2022-11-30T19:01:36.062Z,79.07
2022-11-30T19:04:06.542Z,78.74
2022-11-30T19:06:34.677Z,79.34
2022-11-30T19:09:05.483Z,79.33
2022-11-30T19:11:33.413Z,79.18
2022-11-30T19:14:01.700Z,78.49
2022-11-30T19:16:30.824Z,77.75
2022-11-30T19:19:01.295Z,78.29
2022-11-30T19:21:29.367Z,78.60
2022-11-30T19:23:57.812Z,78.55
2022-11-30T19:26:27.915Z,79.23
2022-11-30T19:28:55.868Z,78.86
2022-11-30T19:31:25.055Z,79.26
2022-11-30T19:33:54.886Z,78.98
2022-11-30T19:36:24.830Z,79.24
2022-11-30T19:38:52.489Z,79.62
2022-11-30T19:41:21.344Z,80.69
2022-11-30T19:44:01.004Z,80.59
2022-11-30T19:46:29.051Z,81.23
2022-11-30T19:48:58.032Z,81.30
2022-11-30T19:51:25.584Z,81.82
2022-11-30T19:53:55.610Z,80.59
2022-11-30T19:56:24.067Z,79.74
2022-11-30T19:58:53.296Z,80.00
2022-11-30T20:01:23.712Z,79.65
2022-11-30T20:03:51.501Z,80.00
2022-11-30T20:06:19.329Z,79.68
2022-11-30T20:08:46.895Z,80.45
2022-11-30T20:11:16.299Z,80.61
2022-11-30T20:13:44.263Z,80.99
2022-11-30T20:16:14.852Z,80.29
2022-11-30T20:18:46.025Z,79.96
2022-11-30T20:21:15.605Z,80.97
2022-11-30T20:23:44.239Z,81.63
2022-11-30T20:26:17.487Z,83.24
2022-11-30T20:28:45.746Z,83.48
2022-11-30T20:31:16.320Z,83.01
2022-11-30T20:33:44.513Z,82.62
2022-11-30T20:36:14.057Z,81.88
2022-11-30T20:38:41.647Z,80.95
2022-11-30T20:41:12.029Z,80.96
2022-11-30T20:43:39.576Z,81.03
2022-11-30T20:46:15.468Z,81.50
2022-11-30T20:48:46.631Z,82.13
2022-11-30T20:51:32.431Z,81.63
2022-11-30T20:54:02.558Z,81.15
2022-11-30T20:56:30.059Z,81.42
2022-11-30T20:59:01.189Z,81.94
2022-11-30T21:01:30.166Z,81.93
2022-11-30T21:03:59.439Z,82.44
2022-11-30T21:06:27.067Z,82.85
2022-11-30T21:08:54.663Z,83.07
2022-11-30T21:11:23.192Z,82.79
2022-11-30T21:13:51.917Z,82.09
2022-11-30T21:16:27.363Z,81.33
2022-11-30T21:18:57.699Z,81.31
2022-11-30T21:21:28.074Z,81.81
2022-11-30T21:23:55.607Z,81.49
2022-11-30T21:26:24.542Z,81.81
2022-11-30T21:28:54.412Z,82.26
2022-11-30T21:31:22.405Z,82.86
2022-11-30T21:33:54.027Z,83.53
2022-11-30T21:36:23.782Z,83.68
2022-11-30T21:38:58.160Z,82.60
2022-11-30T21:41:30.522Z,82.02
2022-11-30T21:43:58.012Z,81.60
2022-11-30T21:46:25.520Z,81.80
2022-11-30T21:48:53.550Z,81.61
2022-11-30T21:51:22.443Z,82.03
2022-11-30T21:53:51.764Z,82.64
2022-11-30T21:56:20.044Z,82.70
2022-11-30T21:58:48.686Z,81.58
2022-11-30T22:01:17.003Z,81.72
2022-11-30T22:03:44.464Z,81.88
2022-11-30T22:06:13.193Z,82.56
2022-11-30T22:08:41.165Z,82.58
2022-11-30T22:11:11.086Z,82.30
2022-11-30T22:13:39.131Z,82.66
2022-11-30T22:16:07.807Z,82.39
2022-11-30T22:18:35.470Z,82.78
2022-11-30T22:21:04.119Z,82.47
2022-11-30T22:23:31.815Z,81.97
2022-11-30T22:26:09.702Z,82.32
2022-11-30T22:28:37.066Z,82.34
2022-11-30T22:31:05.207Z,82.48
2022-11-30T22:33:33.323Z,82.04
2022-11-30T22:36:00.721Z,82.93
2022-11-30T22:38:28.367Z,82.71
2022-11-30T22:40:55.892Z,82.54
2022-11-30T22:43:24.547Z,82.31
2022-11-30T22:45:51.901Z,82.18
2022-11-30T22:48:19.256Z,81.89
2022-11-30T22:50:46.607Z,81.77
2022-11-30T22:53:13.962Z,81.70
2022-11-30T22:55:46.628Z,82.41
2022-11-30T22:58:15.610Z,82.69
2022-11-30T23:00:44.288Z,82.42
2022-11-30T23:03:11.741Z,82.87
2022-11-30T23:05:39.141Z,82.89
2022-11-30T23:08:06.568Z,82.61
2022-11-30T23:10:33.971Z,82.25
2022-11-30T23:13:01.282Z,82.25
2022-11-30T23:15:28.601Z,82.30
2022-11-30T23:17:57.291Z,82.18
2022-11-30T23:20:24.626Z,82.23
2022-11-30T23:22:51.964Z,82.72
2022-11-30T23:25:19.324Z,83.33
2022-11-30T23:27:46.687Z,83.32
2022-11-30T23:30:14.136Z,83.85
2022-11-30T23:32:41.521Z,82.79
2022-11-30T23:35:10.505Z,82.62
2022-11-30T23:37:37.851Z,82.43
2022-11-30T23:40:05.740Z,82.46
2022-11-30T23:42:33.149Z,83.14
2022-11-30T23:45:01.156Z,82.79
2022-11-30T23:47:28.561Z,83.44
2022-11-30T23:49:55.887Z,83.48
2022-11-30T23:52:24.664Z,83.54
2022-11-30T23:54:51.988Z,83.68
2022-11-30T23:57:19.378Z,83.52
2022-11-30T23:59:47.143Z,83.54
